Aérodrome :
LOGIN :

S'inscrire | Disclaimer

   EN    FR    IT 

 










Légende :    VFR   VFR Marginal   IFR   IFR Intensif   IFR Très Intensif
Visi : 
Plafond : 
>= 8 km
>= 3000ft
5 à 8 km
1000 à 3000 ft
1500m à 5 km
500 à 1000 ft
800 à 1500m
200 à 500 ft
< 800m
< 200 ft
Symboles :   Orages  Brouillard  Fortes neiges  Fortes précipitations  Vent > 20 kt
SIGMETs :   Divers  Orages  Givrage  Turbulence  Onde Orograph.  Cendres Volcan.







- Altitude de l'aérodrome : 390 ft
- Code IATA : NQY
- Voir les cartes d'approche


EGHQ - Newquay

DERNIER METAR :
  • 141420Z 28022KT 9999 VCSH SCT028 FEW035CB 07/02 Q0992

METARs EXPIRÉS :
  • 141350Z 29021KT 9999 VCSH SCT024 FEW034CB 06/02 Q0993
  • 141320Z 28020KT 9999 VCSH SCT020 FEW034CB 06/01 Q0993
  • 141250Z 28026KT 8000 SHRAGS SCT022 FEW032CB 07/02 Q0993
  • 141220Z 26032G45KT 9999 VCSH SCT016CB SCT030 05/02 Q0994 RESHRA RESHGS
  • 141150Z 27026KT 9999 VCSH FEW012CB SCT026 06/03 Q0994

TAF TAF EGHQ
Valide du 14 à 15h jusqu'au 14 à 22h UTC


141405Z 1415/1422 28020G30KT 9999 FEW010 SCT025
PROB40
TEMPO 1415/1422 30025G40KT 2000 +SHRAGS BKN010CB
Pas de NOTAMs connus pour ce terrain.
2 SIGMETs publiés pour la FIR London (EGTT) :
 
Turbulence forte
EGTT SIGMET 04 VALID 141500/141900 EGRR
EGTT LONDON FIR SEV TURB FCST SW OF LINE N5000 W00119 - N5219 W00533 SFC/FL060 STNR WKN=
Turbulence forte
EGTT SIGMET 03 VALID 141100/141500 EGRR
EGTT LONDON FIR SEV TURB FCST SW OF LINE N5000 W00019 - N5153 W00620 SFC/FL060 STNR NC=



MET'MAP, la Météo Aéronautique d'un coup d'oeil ! - Copyright ORBIFLY Décembre 2007 - Disclaimer

ORBIFLY MET'MAP TEAM :

Programmation & Développement : Alexandra Zaïnal
Conception & Développement : Baudouin d'Aumeries
Co-Programmation & Développement : Marc-Olivier Méhu
Soutien technique & logistique : Manuel Goepfert

Contact : metmap@orbifly.com




SOURCES & CREDITS :

   NOAA